createdAt,value
2018-08-03T00:01:22.413Z,24.56
2018-08-03T00:04:29.314Z,24.49
2018-08-03T00:07:35.850Z,24.44
2018-08-03T00:10:42.588Z,24.38
2018-08-03T00:13:49.476Z,24.32
2018-08-03T00:16:56.257Z,24.32
2018-08-03T00:20:03.130Z,24.34
2018-08-03T00:23:10.003Z,24.36
2018-08-03T00:26:16.234Z,24.35
2018-08-03T00:29:22.830Z,24.31
2018-08-03T00:32:29.945Z,24.28
2018-08-03T00:35:36.751Z,24.28
2018-08-03T00:38:43.554Z,24.24
2018-08-03T00:41:50.376Z,24.20
2018-08-03T00:44:56.926Z,24.14
2018-08-03T00:48:03.392Z,24.08
2018-08-03T00:51:09.981Z,24.06
2018-08-03T00:54:17.268Z,24.06
2018-08-03T00:57:24.039Z,24.05
2018-08-03T01:00:30.841Z,24.02
2018-08-03T01:03:37.518Z,23.99
2018-08-03T01:06:43.996Z,23.94
2018-08-03T01:09:51.029Z,23.86
2018-08-03T01:12:57.872Z,23.81
2018-08-03T01:16:04.697Z,23.79
2018-08-03T01:19:13.655Z,23.76
2018-08-03T01:22:20.642Z,23.70
2018-08-03T01:25:27.411Z,23.65
2018-08-03T01:28:34.202Z,23.61
2018-08-03T01:31:40.766Z,23.59
2018-08-03T01:34:47.690Z,23.57
2018-08-03T01:37:54.494Z,23.52
2018-08-03T01:41:01.390Z,23.49
2018-08-03T01:44:08.235Z,23.46
2018-08-03T01:47:14.502Z,23.40
2018-08-03T01:50:21.085Z,23.36
2018-08-03T01:53:27.953Z,23.37
2018-08-03T01:56:34.507Z,23.36
2018-08-03T01:59:41.333Z,23.33
2018-08-03T02:02:48.075Z,23.28
2018-08-03T02:05:54.998Z,23.26
2018-08-03T02:09:01.810Z,23.28
2018-08-03T02:12:08.956Z,23.30
2018-08-03T02:15:16.130Z,23.27
2018-08-03T02:18:22.949Z,23.21
2018-08-03T02:21:29.859Z,23.16
2018-08-03T02:24:36.340Z,23.14
2018-08-03T02:27:42.912Z,23.15
2018-08-03T02:30:49.689Z,23.17
2018-08-03T02:33:56.264Z,23.15
2018-08-03T02:37:03.335Z,23.15
2018-08-03T02:40:10.272Z,23.14
2018-08-03T02:43:16.598Z,23.08
2018-08-03T02:46:23.301Z,22.99
2018-08-03T02:49:29.848Z,22.96
2018-08-03T02:52:36.662Z,22.97
2018-08-03T02:55:43.214Z,23.01
2018-08-03T02:58:49.759Z,23.03
2018-08-03T03:01:56.898Z,23.06
2018-08-03T03:05:03.686Z,23.08
2018-08-03T03:08:10.474Z,23.08
2018-08-03T03:11:17.285Z,23.06
2018-08-03T03:14:23.810Z,23.04
2018-08-03T03:17:30.600Z,23.04
2018-08-03T03:20:37.393Z,23.03
2018-08-03T03:23:44.249Z,23.03
2018-08-03T03:26:51.494Z,23.03
2018-08-03T03:29:58.273Z,23.02
2018-08-03T03:33:05.103Z,23.02
2018-08-03T03:36:11.649Z,23.00
2018-08-03T03:39:18.425Z,22.99
2018-08-03T03:42:25.256Z,22.97
2018-08-03T03:45:32.064Z,22.97
2018-08-03T03:48:38.843Z,22.99
2018-08-03T03:51:45.377Z,22.98
2018-08-03T03:54:52.315Z,22.92
2018-08-03T03:57:58.780Z,22.89
2018-08-03T04:01:05.676Z,22.94
2018-08-03T04:04:12.175Z,23.00
2018-08-03T04:07:18.725Z,23.01
2018-08-03T04:10:25.480Z,23.01
2018-08-03T04:13:32.430Z,23.04
2018-08-03T04:16:39.527Z,23.05
2018-08-03T04:19:46.694Z,23.00
2018-08-03T04:22:53.358Z,23.02
2018-08-03T04:26:00.078Z,23.03
2018-08-03T04:29:07.051Z,23.02
2018-08-03T04:32:13.912Z,23.04
2018-08-03T04:35:20.446Z,23.07
2018-08-03T04:38:27.149Z,23.10
2018-08-03T04:41:33.697Z,23.09
2018-08-03T04:44:40.460Z,23.13
2018-08-03T04:47:47.249Z,23.22
2018-08-03T04:50:54.042Z,23.27
2018-08-03T04:54:00.859Z,23.31
2018-08-03T04:57:07.402Z,23.34
2018-08-03T05:00:14.074Z,23.39
2018-08-03T05:03:20.899Z,23.43
2018-08-03T05:06:27.682Z,23.46
2018-08-03T05:09:34.485Z,23.52
2018-08-03T05:12:41.044Z,23.61
2018-08-03T05:15:47.971Z,23.70
2018-08-03T05:18:54.634Z,23.78
2018-08-03T05:22:01.515Z,23.84
2018-08-03T05:25:08.754Z,23.90
2018-08-03T05:28:15.535Z,23.99
2018-08-03T05:31:22.072Z,24.09
2018-08-03T05:34:28.898Z,24.18
2018-08-03T05:37:35.647Z,24.39
2018-08-03T05:40:42.432Z,24.61
2018-08-03T05:43:49.356Z,24.85
2018-08-03T05:46:56.174Z,25.23
2018-08-03T05:50:02.576Z,25.49
2018-08-03T05:53:09.275Z,25.69
2018-08-03T05:56:15.992Z,25.99
2018-08-03T05:59:22.789Z,26.33
2018-08-03T06:02:29.623Z,26.63
2018-08-03T06:05:36.414Z,26.90
2018-08-03T06:08:43.201Z,27.23
2018-08-03T06:11:50.075Z,27.55
2018-08-03T06:14:56.940Z,27.91
2018-08-03T06:18:03.465Z,28.19
2018-08-03T06:21:10.556Z,28.22
2018-08-03T06:24:17.361Z,28.21
2018-08-03T06:27:24.402Z,28.52
2018-08-03T06:30:30.789Z,28.92
2018-08-03T06:33:39.741Z,29.24
2018-08-03T06:36:46.275Z,29.51
2018-08-03T06:39:53.111Z,29.76
2018-08-03T06:43:00.055Z,29.89
2018-08-03T06:46:07.242Z,29.74
2018-08-03T06:49:14.033Z,29.34
2018-08-03T06:52:20.960Z,28.74
2018-08-03T06:55:27.826Z,28.34
2018-08-03T06:58:34.801Z,28.10
2018-08-03T07:01:41.457Z,27.94
2018-08-03T07:04:47.924Z,27.86
2018-08-03T07:07:54.340Z,27.79
2018-08-03T07:11:01.681Z,27.81
2018-08-03T07:14:08.806Z,27.86
2018-08-03T07:17:15.337Z,27.82
2018-08-03T07:20:21.999Z,27.77
2018-08-03T07:23:28.818Z,27.79
2018-08-03T07:26:35.071Z,27.93
2018-08-03T07:29:41.804Z,28.08
2018-08-03T07:32:48.458Z,28.23
2018-08-03T07:35:55.438Z,28.39
2018-08-03T07:39:02.483Z,28.54
2018-08-03T07:42:09.318Z,28.69
2018-08-03T07:45:16.260Z,28.81
2018-08-03T07:48:23.067Z,28.81
2018-08-03T07:51:29.752Z,28.84
2018-08-03T07:54:36.308Z,28.86
2018-08-03T07:57:43.574Z,28.92
2018-08-03T08:00:50.372Z,29.02
2018-08-03T08:03:56.966Z,29.12
2018-08-03T08:07:03.381Z,29.30
2018-08-03T08:10:10.181Z,29.45
2018-08-03T08:13:17.019Z,29.53
2018-08-03T08:16:23.822Z,29.62
2018-08-03T08:19:30.631Z,29.65
2018-08-03T08:22:37.426Z,29.61
2018-08-03T08:25:44.005Z,29.61
2018-08-03T08:28:51.129Z,29.71
2018-08-03T08:31:58.170Z,29.81
2018-08-03T08:35:05.307Z,29.92
2018-08-03T08:38:12.107Z,30.05
2018-08-03T08:41:18.910Z,30.26
2018-08-03T08:44:26.130Z,30.48
2018-08-03T08:47:32.664Z,30.72
2018-08-03T08:50:38.831Z,30.94
2018-08-03T08:53:45.610Z,31.12
2018-08-03T08:56:52.818Z,31.21
2018-08-03T08:59:59.611Z,31.19
2018-08-03T09:03:06.210Z,31.16
2018-08-03T09:06:13.385Z,31.17
2018-08-03T09:09:20.503Z,31.19
2018-08-03T09:12:27.321Z,31.23
2018-08-03T09:15:34.199Z,31.25
2018-08-03T09:18:40.633Z,31.30
2018-08-03T09:21:47.534Z,31.20
2018-08-03T09:24:54.339Z,31.09
2018-08-03T09:28:01.123Z,31.17
2018-08-03T09:31:07.960Z,31.28
2018-08-03T09:34:14.193Z,31.36
2018-08-03T09:37:20.946Z,31.40
2018-08-03T09:40:27.117Z,31.37
2018-08-03T09:43:33.588Z,31.28
2018-08-03T09:46:40.569Z,31.23
2018-08-03T09:49:47.354Z,31.30
2018-08-03T09:52:53.828Z,31.49
2018-08-03T09:56:00.307Z,31.61
2018-08-03T09:59:06.759Z,31.66
2018-08-03T10:02:13.255Z,31.76
2018-08-03T10:05:19.714Z,31.84
2018-08-03T10:08:26.184Z,31.94
2018-08-03T10:11:32.688Z,32.08
2018-08-03T10:14:39.423Z,32.19
2018-08-03T10:17:46.542Z,32.24
2018-08-03T10:20:53.446Z,32.34
2018-08-03T10:24:00.930Z,32.51
2018-08-03T10:27:07.759Z,32.72
2018-08-03T10:30:14.647Z,32.89
2018-08-03T10:33:20.802Z,33.03
2018-08-03T10:36:27.876Z,33.38
2018-08-03T10:39:34.718Z,33.76
2018-08-03T10:42:41.927Z,33.87
2018-08-03T10:45:48.500Z,33.88
2018-08-03T10:48:55.202Z,33.93
2018-08-03T10:52:02.157Z,33.97
2018-08-03T10:55:08.974Z,33.92
2018-08-03T10:58:16.177Z,33.84
2018-08-03T11:01:23.035Z,33.74
2018-08-03T11:04:29.918Z,33.55
2018-08-03T11:07:37.139Z,33.49
2018-08-03T11:10:44.265Z,33.63
2018-08-03T11:13:51.133Z,33.68
2018-08-03T11:16:58.237Z,33.79
2018-08-03T11:20:05.700Z,33.97
2018-08-03T11:23:12.506Z,34.09
2018-08-03T11:26:19.459Z,34.16
2018-08-03T11:29:26.246Z,34.16
2018-08-03T11:32:32.722Z,34.12
2018-08-03T11:35:39.479Z,34.09
2018-08-03T11:38:46.684Z,34.18
2018-08-03T11:41:53.606Z,34.21
2018-08-03T11:45:00.546Z,34.25
2018-08-03T11:48:07.034Z,34.36
2018-08-03T11:51:13.853Z,34.45
2018-08-03T11:54:20.464Z,34.63
2018-08-03T11:57:27.288Z,34.75
2018-08-03T12:00:33.836Z,34.82
2018-08-03T12:03:40.302Z,34.86
2018-08-03T12:06:47.420Z,34.96
2018-08-03T12:09:54.557Z,35.27
2018-08-03T12:13:01.521Z,35.58
2018-08-03T12:16:08.759Z,35.91
2018-08-03T12:19:15.672Z,36.17
2018-08-03T12:22:22.411Z,36.40
2018-08-03T12:25:29.231Z,36.56
2018-08-03T12:28:36.337Z,36.47
2018-08-03T12:31:42.694Z,36.46
2018-08-03T12:34:49.214Z,36.63
2018-08-03T12:37:55.685Z,36.82
2018-08-03T12:41:02.154Z,37.03
2018-08-03T12:44:08.983Z,37.43
2018-08-03T12:47:15.605Z,38.11
2018-08-03T12:50:22.430Z,38.98
2018-08-03T12:53:29.420Z,39.87
2018-08-03T12:56:36.212Z,40.76
2018-08-03T12:59:42.530Z,41.39
2018-08-03T13:02:49.576Z,41.78
2018-08-03T13:05:56.765Z,41.24
2018-08-03T13:09:03.670Z,40.67
2018-08-03T13:12:10.686Z,40.72
2018-08-03T13:15:17.685Z,40.81
2018-08-03T13:18:24.174Z,40.68
2018-08-03T13:21:35.434Z,40.44
2018-08-03T13:24:42.591Z,40.10
2018-08-03T13:27:49.865Z,39.56
2018-08-03T13:30:57.168Z,39.24
2018-08-03T13:34:04.363Z,38.94
2018-08-03T13:37:11.470Z,38.73
2018-08-03T13:40:17.931Z,38.53
2018-08-03T13:43:25.130Z,38.01
2018-08-03T13:46:32.323Z,37.37
2018-08-03T13:49:38.687Z,36.86
2018-08-03T13:52:45.875Z,36.59
2018-08-03T13:55:53.280Z,36.48
2018-08-03T13:59:00.119Z,36.43
2018-08-03T14:02:18.395Z,36.36
2018-08-03T14:05:25.575Z,36.34
2018-08-03T14:08:32.392Z,36.45
2018-08-03T14:11:39.316Z,36.46
2018-08-03T14:14:46.042Z,36.38
2018-08-03T14:17:52.847Z,36.30
2018-08-03T14:20:59.075Z,36.29
2018-08-03T14:24:05.907Z,36.33
2018-08-03T14:27:12.622Z,36.29
2018-08-03T14:30:19.436Z,36.16
2018-08-03T14:33:26.004Z,36.02
2018-08-03T14:36:32.810Z,35.93
2018-08-03T14:39:39.049Z,35.83
2018-08-03T14:42:46.227Z,35.76
2018-08-03T14:45:53.060Z,35.74
2018-08-03T14:48:59.661Z,35.80
2018-08-03T14:52:06.760Z,35.80
2018-08-03T14:55:13.591Z,35.72
2018-08-03T14:58:20.717Z,35.58
2018-08-03T15:01:27.624Z,35.42
2018-08-03T15:04:34.433Z,35.40
2018-08-03T15:07:41.220Z,35.47
2018-08-03T15:11:07.697Z,35.47
2018-08-03T15:14:14.527Z,35.40
2018-08-03T15:17:21.310Z,35.40
2018-08-03T15:20:28.471Z,35.41
2018-08-03T15:23:35.404Z,35.46
2018-08-03T15:26:42.026Z,35.44
2018-08-03T15:29:48.750Z,35.31
2018-08-03T15:32:55.926Z,35.22
2018-08-03T15:36:02.505Z,35.19
2018-08-03T15:39:11.091Z,35.15
2018-08-03T15:42:18.234Z,35.10
2018-08-03T15:45:25.062Z,35.08
2018-08-03T15:48:31.968Z,34.99
2018-08-03T15:51:39.189Z,34.89
2018-08-03T15:54:46.383Z,34.84
2018-08-03T15:57:52.887Z,34.82
2018-08-03T16:00:59.735Z,34.79
2018-08-03T16:04:06.637Z,34.71
2018-08-03T16:07:13.128Z,34.56
2018-08-03T16:10:19.965Z,34.45
2018-08-03T16:13:26.816Z,34.36
2018-08-03T16:16:33.982Z,34.26
2018-08-03T16:19:40.490Z,34.16
2018-08-03T16:22:47.045Z,33.98
2018-08-03T16:25:54.223Z,33.92
2018-08-03T16:29:01.064Z,33.92
2018-08-03T16:32:08.045Z,33.85
2018-08-03T16:35:14.784Z,33.73
2018-08-03T16:38:21.340Z,33.62
2018-08-03T16:41:28.438Z,33.51
2018-08-03T16:44:34.710Z,33.39
2018-08-03T16:47:41.806Z,33.34
2018-08-03T16:50:48.378Z,33.29
2018-08-03T16:53:54.737Z,33.24
2018-08-03T16:57:01.601Z,33.18
2018-08-03T17:00:08.754Z,33.13
2018-08-03T17:03:15.669Z,33.10
2018-08-03T17:06:21.948Z,33.10
2018-08-03T17:09:28.859Z,33.10
2018-08-03T17:12:36.601Z,33.03
2018-08-03T17:15:44.364Z,32.91
2018-08-03T17:18:51.074Z,32.80
2018-08-03T17:21:58.016Z,32.75
2018-08-03T17:25:05.430Z,32.67
2018-08-03T17:28:12.301Z,32.60
2018-08-03T17:31:19.036Z,32.58
2018-08-03T17:34:25.628Z,32.54
2018-08-03T17:37:32.095Z,32.44
2018-08-03T17:40:38.885Z,32.32
2018-08-03T17:43:45.474Z,32.23
2018-08-03T17:46:52.048Z,32.13
2018-08-03T17:49:58.183Z,31.99
2018-08-03T17:53:04.670Z,31.87
2018-08-03T17:56:11.282Z,31.73
2018-08-03T17:59:17.804Z,31.63
2018-08-03T18:02:24.288Z,31.57
2018-08-03T18:05:30.851Z,31.51
2018-08-03T18:08:37.720Z,31.46
2018-08-03T18:11:44.340Z,31.41
2018-08-03T18:14:50.875Z,31.32
2018-08-03T18:17:58.008Z,31.25
2018-08-03T18:21:04.514Z,31.19
2018-08-03T18:24:11.478Z,31.10
2018-08-03T18:27:18.730Z,31.01
2018-08-03T18:30:25.591Z,30.97
2018-08-03T18:33:32.775Z,30.87
2018-08-03T18:36:39.579Z,30.80
2018-08-03T18:39:46.383Z,30.78
2018-08-03T18:42:53.582Z,30.75
2018-08-03T18:46:00.483Z,30.69
2018-08-03T18:49:07.243Z,30.63
2018-08-03T18:52:13.949Z,30.54
2018-08-03T18:55:20.935Z,30.46
2018-08-03T18:58:28.196Z,30.40
2018-08-03T19:01:34.749Z,30.36
2018-08-03T19:04:41.792Z,30.32
2018-08-03T19:07:48.698Z,30.28
2018-08-03T19:10:55.206Z,30.20
2018-08-03T19:14:01.999Z,30.14
2018-08-03T19:17:08.857Z,30.05
2018-08-03T19:20:15.635Z,29.96
2018-08-03T19:23:22.321Z,29.89
2018-08-03T19:26:29.354Z,29.79
2018-08-03T19:29:36.163Z,29.73
2018-08-03T19:32:43.090Z,29.69
2018-08-03T19:35:50.410Z,29.64
2018-08-03T19:38:57.217Z,29.60
2018-08-03T19:42:04.164Z,29.51
2018-08-03T19:45:11.008Z,29.40
2018-08-03T19:48:17.762Z,29.31
2018-08-03T19:51:24.584Z,29.26
2018-08-03T19:54:31.123Z,29.24
2018-08-03T19:57:38.320Z,29.16
2018-08-03T20:00:44.871Z,29.05
2018-08-03T20:03:52.146Z,28.96
2018-08-03T20:06:58.756Z,28.82
2018-08-03T20:10:06.710Z,28.68
2018-08-03T20:13:13.673Z,28.62
2018-08-03T20:16:20.492Z,28.57
2018-08-03T20:19:27.102Z,28.48
2018-08-03T20:22:33.290Z,28.39
2018-08-03T20:25:40.088Z,28.36
2018-08-03T20:28:46.994Z,28.33
2018-08-03T20:31:53.970Z,28.15
2018-08-03T20:35:00.779Z,27.94
2018-08-03T20:38:07.863Z,27.90
2018-08-03T20:41:14.678Z,27.93
2018-08-03T20:44:21.366Z,27.95
2018-08-03T20:47:28.094Z,27.93
2018-08-03T20:50:34.995Z,27.86
2018-08-03T20:53:41.976Z,27.80
2018-08-03T20:56:48.472Z,27.72
2018-08-03T20:59:55.282Z,27.67
2018-08-03T21:03:01.840Z,27.66
2018-08-03T21:06:08.627Z,27.59
2018-08-03T21:09:15.450Z,27.51
2018-08-03T21:12:22.403Z,27.49
2018-08-03T21:15:29.195Z,27.47
2018-08-03T21:18:36.067Z,27.43
2018-08-03T21:21:42.914Z,27.33
2018-08-03T21:24:52.655Z,27.15
2018-08-03T21:27:59.239Z,26.98
2018-08-03T21:31:06.361Z,26.84
2018-08-03T21:34:13.177Z,26.76
2018-08-03T21:37:20.020Z,26.76
2018-08-03T21:40:26.766Z,26.76
2018-08-03T21:43:34.075Z,26.72
2018-08-03T21:46:40.875Z,26.65
2018-08-03T21:49:47.745Z,26.60
2018-08-03T21:52:54.637Z,26.51
2018-08-03T21:56:01.431Z,26.42
2018-08-03T21:59:07.935Z,26.34
2018-08-03T22:02:14.838Z,26.33
2018-08-03T22:05:21.406Z,26.29
2018-08-03T22:08:28.198Z,26.25
2018-08-03T22:11:34.612Z,26.20
2018-08-03T22:14:41.409Z,26.10
2018-08-03T22:17:48.230Z,26.03
2018-08-03T22:20:55.023Z,26.05
2018-08-03T22:24:01.888Z,26.12
2018-08-03T22:27:08.414Z,26.16
2018-08-03T22:30:15.141Z,26.08
2018-08-03T22:33:22.039Z,26.03
2018-08-03T22:36:28.837Z,25.92
2018-08-03T22:39:35.715Z,25.83
2018-08-03T22:42:42.857Z,25.72
2018-08-03T22:45:51.172Z,25.59
2018-08-03T22:48:58.024Z,25.53
2018-08-03T22:52:05.018Z,25.51
2018-08-03T22:55:11.799Z,25.50
2018-08-03T22:58:18.621Z,25.48
2018-08-03T23:01:25.396Z,25.49
2018-08-03T23:04:32.215Z,25.40
2018-08-03T23:07:39.001Z,25.25
2018-08-03T23:10:45.818Z,25.21
2018-08-03T23:13:52.528Z,25.20
2018-08-03T23:16:59.243Z,25.23
2018-08-03T23:20:06.958Z,25.21
2018-08-03T23:23:13.889Z,25.12
2018-08-03T23:26:20.698Z,25.02
2018-08-03T23:29:27.710Z,24.99
2018-08-03T23:32:34.941Z,25.03
2018-08-03T23:35:41.714Z,25.07
2018-08-03T23:38:48.540Z,25.08
2018-08-03T23:41:55.362Z,24.92
2018-08-03T23:45:01.937Z,24.78
2018-08-03T23:48:08.657Z,24.67
2018-08-03T23:51:15.525Z,24.52
2018-08-03T23:54:22.409Z,24.51
2018-08-03T23:57:29.273Z,24.60
